createdAt,value
2016-09-05T00:00:14.598Z,0
2016-09-05T00:01:14.575Z,0
2016-09-05T00:02:13.843Z,0
2016-09-05T00:03:13.108Z,0
2016-09-05T00:04:13.775Z,0
2016-09-05T00:05:13.745Z,0
2016-09-05T00:06:13.707Z,0
2016-09-05T00:07:12.993Z,0
2016-09-05T00:08:14.346Z,0
2016-09-05T00:09:13.625Z,0
2016-09-05T00:10:14.279Z,0
2016-09-05T00:11:14.247Z,0
2016-09-05T00:12:12.826Z,0
2016-09-05T00:13:14.181Z,0
2016-09-05T00:14:13.455Z,0
2016-09-05T00:15:13.420Z,0
2016-09-05T00:16:14.095Z,0
2016-09-05T00:17:12.663Z,0
2016-09-05T00:18:14.020Z,0
2016-09-05T00:19:13.296Z,0
2016-09-05T00:20:13.260Z,0
2016-09-05T00:21:13.234Z,0
2016-09-05T00:22:13.202Z,0
2016-09-05T00:23:13.864Z,0
2016-09-05T00:24:13.844Z,0
2016-09-05T00:25:13.810Z,0
2016-09-05T00:26:13.763Z,0
2016-09-05T00:27:13.035Z,0
2016-09-05T00:28:13.705Z,0
2016-09-05T00:29:13.672Z,0
2016-09-05T00:30:12.956Z,0
2016-09-05T00:31:13.611Z,0
2016-09-05T00:32:13.586Z,0
2016-09-05T00:33:13.547Z,0
2016-09-05T00:34:12.813Z,0
2016-09-05T00:35:13.482Z,0
2016-09-05T00:36:12.748Z,0
2016-09-05T00:37:13.415Z,0
2016-09-05T00:38:13.384Z,0
2016-09-05T00:39:13.347Z,0
2016-09-05T00:40:12.626Z,0
2016-09-05T00:41:13.287Z,0
2016-09-05T00:42:13.268Z,0
2016-09-05T00:43:13.221Z,0
2016-09-05T00:44:13.183Z,0
2016-09-05T00:45:11.071Z,0
2016-09-05T00:46:12.433Z,0
2016-09-05T00:47:13.094Z,0
2016-09-05T00:48:13.062Z,0
2016-09-05T00:49:13.022Z,0
2016-09-05T00:50:12.303Z,0
2016-09-05T00:51:12.969Z,0
2016-09-05T00:52:12.236Z,0
2016-09-05T00:53:12.899Z,0
2016-09-05T00:54:12.173Z,0
2016-09-05T00:55:12.149Z,0
2016-09-05T00:56:12.112Z,0
2016-09-05T00:57:12.080Z,0
2016-09-05T00:58:12.748Z,0
2016-09-05T00:59:12.718Z,0
2016-09-05T01:00:11.985Z,0
2016-09-05T01:01:12.641Z,0
2016-09-05T01:02:11.238Z,0
2016-09-05T01:03:12.582Z,0
2016-09-05T01:04:12.544Z,0
2016-09-05T01:05:12.525Z,0
2016-09-05T01:06:10.395Z,0
2016-09-05T01:07:11.063Z,0
2016-09-05T01:08:12.421Z,0
2016-09-05T01:09:12.390Z,0
2016-09-05T01:10:10.965Z,0
2016-09-05T01:11:10.942Z,0
2016-09-05T01:12:12.288Z,0
2016-09-05T01:13:11.579Z,0
2016-09-05T01:14:12.233Z,0
2016-09-05T01:15:12.192Z,0
2016-09-05T01:16:10.770Z,0
2016-09-05T01:17:11.437Z,0
2016-09-05T01:18:12.097Z,0
2016-09-05T01:19:11.372Z,0
2016-09-05T01:20:11.339Z,0
2016-09-05T01:21:11.305Z,0
2016-09-05T01:22:11.968Z,0
2016-09-05T01:23:11.238Z,0
2016-09-05T01:24:11.215Z,0
2016-09-05T01:25:11.875Z,0
2016-09-05T01:26:11.848Z,0
2016-09-05T01:27:11.112Z,0
2016-09-05T01:28:11.093Z,0
2016-09-05T01:29:11.054Z,0
2016-09-05T01:30:09.633Z,0
2016-09-05T01:31:11.688Z,0
2016-09-05T01:32:11.644Z,0
2016-09-05T01:33:10.225Z,0
2016-09-05T01:34:11.595Z,0
2016-09-05T01:35:11.548Z,0
2016-09-05T01:36:10.845Z,0
2016-09-05T01:37:11.487Z,0
2016-09-05T01:38:11.458Z,0
2016-09-05T01:39:10.744Z,0
2016-09-05T01:40:10.006Z,0
2016-09-05T01:41:10.670Z,0
2016-09-05T01:42:11.331Z,0
2016-09-05T01:43:09.219Z,0
2016-09-05T01:44:10.569Z,0
2016-09-05T01:45:10.545Z,0
2016-09-05T01:46:11.216Z,0
2016-09-05T01:47:10.474Z,0
2016-09-05T01:48:11.136Z,0
2016-09-05T01:49:11.110Z,0
2016-09-05T01:50:11.069Z,0
2016-09-05T01:51:10.344Z,0
2016-09-05T01:52:10.306Z,0
2016-09-05T01:53:10.274Z,0
2016-09-05T01:54:10.245Z,0
2016-09-05T01:55:10.203Z,0
2016-09-05T01:56:10.188Z,0
2016-09-05T01:57:10.841Z,0
2016-09-05T01:58:10.116Z,0
2016-09-05T01:59:10.082Z,0
2016-09-05T02:00:10.749Z,0
2016-09-05T02:01:10.025Z,0
2016-09-05T02:02:10.708Z,0
2016-09-05T02:03:09.951Z,0
2016-09-05T02:04:09.925Z,0
2016-09-05T02:05:09.186Z,0
2016-09-05T02:06:10.562Z,0
2016-09-05T02:07:10.522Z,0
2016-09-05T02:08:10.490Z,0
2016-09-05T02:09:09.061Z,0
2016-09-05T02:10:09.727Z,0
2016-09-05T02:11:10.395Z,0
2016-09-05T02:12:10.358Z,0
2016-09-05T02:13:09.629Z,0
2016-09-05T02:14:09.606Z,0
2016-09-05T02:15:09.561Z,0
2016-09-05T02:16:09.537Z,0
2016-09-05T02:17:09.518Z,0
2016-09-05T02:18:10.165Z,0
2016-09-05T02:19:09.440Z,0
2016-09-05T02:20:09.406Z,0
2016-09-05T02:21:10.081Z,0
2016-09-05T02:22:09.342Z,0
2016-09-05T02:23:09.305Z,0
2016-09-05T02:24:09.276Z,0
2016-09-05T02:25:09.945Z,0
2016-09-05T02:26:09.906Z,0
2016-09-05T02:27:09.878Z,0
2016-09-05T02:28:09.844Z,0
2016-09-05T02:29:08.414Z,0
2016-09-05T02:30:09.084Z,0
2016-09-05T02:31:09.743Z,0
2016-09-05T02:32:09.017Z,0
2016-09-05T02:33:08.983Z,0
2016-09-05T02:34:09.662Z,0
2016-09-05T02:35:08.914Z,0
2016-09-05T02:36:09.592Z,0
2016-09-05T02:37:09.548Z,0
2016-09-05T02:38:08.818Z,0
2016-09-05T02:39:09.485Z,0
2016-09-05T02:40:08.069Z,0
2016-09-05T02:41:08.025Z,0
2016-09-05T02:42:07.298Z,0
2016-09-05T02:43:08.666Z,0
2016-09-05T02:44:08.638Z,0
2016-09-05T02:45:09.293Z,0
2016-09-05T02:46:08.559Z,0
2016-09-05T02:47:09.219Z,0
2016-09-05T02:48:09.188Z,0
2016-09-05T02:49:09.168Z,0
2016-09-05T02:50:08.430Z,0
2016-09-05T02:51:08.397Z,0
2016-09-05T02:52:08.369Z,0
2016-09-05T02:53:09.024Z,0
2016-09-05T02:54:08.997Z,0
2016-09-05T02:55:08.264Z,0
2016-09-05T02:56:08.241Z,0
2016-09-05T02:57:08.896Z,0
2016-09-05T02:58:08.166Z,0
2016-09-05T02:59:08.131Z,0
2016-09-05T03:00:08.106Z,0
2016-09-05T03:01:08.071Z,0
2016-09-05T03:02:08.069Z,0
2016-09-05T03:03:08.705Z,0
2016-09-05T03:04:08.667Z,0
2016-09-05T03:05:08.633Z,0
2016-09-05T03:06:07.213Z,0
2016-09-05T03:07:07.872Z,0
2016-09-05T03:08:07.843Z,0
2016-09-05T03:09:07.107Z,0
2016-09-05T03:10:08.478Z,0
2016-09-05T03:11:07.050Z,0
2016-09-05T03:12:08.405Z,0
2016-09-05T03:13:06.293Z,0
2016-09-05T03:14:08.348Z,0
2016-09-05T03:15:08.310Z,0
2016-09-05T03:16:07.599Z,0
2016-09-05T03:17:07.546Z,0
2016-09-05T03:18:07.516Z,0
2016-09-05T03:19:07.482Z,0
2016-09-05T03:20:08.157Z,0
2016-09-05T03:21:07.432Z,0
2016-09-05T03:22:06.702Z,0
2016-09-05T03:23:08.057Z,0
2016-09-05T03:24:08.014Z,0
2016-09-05T03:25:07.297Z,0
2016-09-05T03:26:07.252Z,0
2016-09-05T03:27:07.914Z,0
2016-09-05T03:28:07.900Z,0
2016-09-05T03:29:07.158Z,0
2016-09-05T03:30:05.728Z,0
2016-09-05T03:31:07.106Z,0
2016-09-05T03:32:07.070Z,0
2016-09-05T03:33:07.725Z,0
2016-09-05T03:34:06.299Z,0
2016-09-05T03:35:06.962Z,0
2016-09-05T03:36:06.927Z,0
2016-09-05T03:37:06.897Z,0
2016-09-05T03:38:06.869Z,0
2016-09-05T03:39:05.440Z,0
2016-09-05T03:40:06.798Z,0
2016-09-05T03:41:06.759Z,0
2016-09-05T03:42:06.749Z,0
2016-09-05T03:43:06.702Z,0
2016-09-05T03:44:07.361Z,0
2016-09-05T03:45:07.340Z,0
2016-09-05T03:46:06.610Z,0
2016-09-05T03:47:07.270Z,0
2016-09-05T03:48:06.543Z,0
2016-09-05T03:49:07.204Z,0
2016-09-05T03:50:06.480Z,0
2016-09-05T03:51:05.764Z,0
2016-09-05T03:52:06.406Z,0
2016-09-05T03:53:07.082Z,0
2016-09-05T03:54:06.339Z,0
2016-09-05T03:55:07.001Z,0
2016-09-05T03:56:06.972Z,0
2016-09-05T03:57:06.248Z,0
2016-09-05T03:58:06.208Z,0
2016-09-05T03:59:05.496Z,0
2016-09-05T04:00:05.449Z,0
2016-09-05T04:01:06.116Z,0
2016-09-05T04:02:06.086Z,0
2016-09-05T04:03:06.743Z,0
2016-09-05T04:04:06.726Z,0
2016-09-05T04:05:05.987Z,0
2016-09-05T04:06:05.255Z,0
2016-09-05T04:07:05.920Z,0
2016-09-05T04:08:04.502Z,0
2016-09-05T04:09:04.466Z,0
2016-09-05T04:10:05.822Z,0
2016-09-05T04:11:05.793Z,0
2016-09-05T04:12:06.461Z,0
2016-09-05T04:13:05.724Z,0
2016-09-05T04:14:06.389Z,0
2016-09-05T04:15:06.377Z,0
2016-09-05T04:16:06.325Z,0
2016-09-05T04:17:06.294Z,0
2016-09-05T04:18:05.566Z,0
2016-09-05T04:19:04.838Z,0
2016-09-05T04:20:06.195Z,0
2016-09-05T04:21:05.464Z,0
2016-09-05T04:22:05.431Z,0
2016-09-05T04:23:06.102Z,0
2016-09-05T04:24:05.380Z,0
2016-09-05T04:25:05.334Z,0
2016-09-05T04:26:06.006Z,0
2016-09-05T04:27:05.278Z,0
2016-09-05T04:28:05.239Z,0
2016-09-05T04:29:05.905Z,0
2016-09-05T04:30:05.923Z,0
2016-09-05T04:31:05.139Z,0
2016-09-05T04:32:04.423Z,0
2016-09-05T04:33:04.379Z,0
2016-09-05T04:34:05.754Z,0
2016-09-05T04:35:04.328Z,0
2016-09-05T04:36:04.979Z,0
2016-09-05T04:37:05.660Z,0
2016-09-05T04:38:04.226Z,0
2016-09-05T04:39:04.182Z,0
2016-09-05T04:40:04.853Z,0
2016-09-05T04:41:05.519Z,0
2016-09-05T04:42:03.392Z,0
2016-09-05T04:43:04.768Z,0
2016-09-05T04:44:04.734Z,0
2016-09-05T04:45:04.006Z,0
2016-09-05T04:46:04.674Z,0
2016-09-05T04:47:04.776Z,0
2016-09-05T04:48:04.600Z,0
2016-09-05T04:49:05.260Z,0
2016-09-05T04:50:04.544Z,0
2016-09-05T04:51:04.496Z,0
2016-09-05T04:52:04.467Z,0
2016-09-05T04:53:04.436Z,0
2016-09-05T04:54:05.099Z,0
2016-09-05T04:55:05.082Z,0
2016-09-05T04:56:04.337Z,0
2016-09-05T04:57:05.002Z,0
2016-09-05T04:58:04.976Z,0
2016-09-05T04:59:04.942Z,0
2016-09-05T05:00:04.220Z,0
2016-09-05T05:01:04.174Z,0
2016-09-05T05:02:04.146Z,0
2016-09-05T05:03:04.119Z,0
2016-09-05T05:04:04.770Z,0
2016-09-05T05:05:04.048Z,0
2016-09-05T05:06:04.019Z,0
2016-09-05T05:07:03.302Z,0
2016-09-05T05:08:03.277Z,0
2016-09-05T05:09:04.618Z,0
2016-09-05T05:10:03.885Z,5
2016-09-05T05:11:03.857Z,5
2016-09-05T05:12:04.523Z,5
2016-09-05T05:13:03.092Z,5
2016-09-05T05:14:03.056Z,5
2016-09-05T05:15:03.718Z,5
2016-09-05T05:16:04.400Z,5
2016-09-05T05:17:02.272Z,5
2016-09-05T05:18:02.230Z,5
2016-09-05T05:19:04.286Z,5
2016-09-05T05:20:04.262Z,5
2016-09-05T05:21:04.224Z,5
2016-09-05T05:22:04.195Z,10
2016-09-05T05:23:02.767Z,10
2016-09-05T05:24:04.123Z,10
2016-09-05T05:25:03.399Z,10
2016-09-05T05:26:02.678Z,10
2016-09-05T05:27:04.063Z,10
2016-09-05T05:28:03.309Z,10
2016-09-05T05:29:03.267Z,10
2016-09-05T05:30:03.935Z,10
2016-09-05T05:31:03.903Z,10
2016-09-05T05:32:03.189Z,10
2016-09-05T05:33:03.144Z,5
2016-09-05T05:34:02.422Z,10
2016-09-05T05:35:02.448Z,10
2016-09-05T05:36:03.047Z,10
2016-09-05T05:37:01.625Z,10
2016-09-05T05:38:03.671Z,10
2016-09-05T05:39:02.965Z,10
2016-09-05T05:40:03.613Z,10
2016-09-05T05:41:03.577Z,10
2016-09-05T05:42:03.548Z,10
2016-09-05T05:43:02.121Z,10
2016-09-05T05:44:03.475Z,10
2016-09-05T05:45:02.052Z,10
2016-09-05T05:46:02.716Z,10
2016-09-05T05:47:03.395Z,10
2016-09-05T05:48:01.966Z,15
2016-09-05T05:49:02.621Z,15
2016-09-05T05:50:03.290Z,15
2016-09-05T05:51:01.867Z,15
2016-09-05T05:52:01.824Z,15
2016-09-05T05:53:02.494Z,15
2016-09-05T05:54:02.462Z,15
2016-09-05T05:55:01.731Z,15
2016-09-05T05:56:03.118Z,20
2016-09-05T05:57:02.370Z,20
2016-09-05T05:58:01.638Z,20
2016-09-05T05:59:01.606Z,20
2016-09-05T06:00:01.587Z,15
2016-09-05T06:01:02.240Z,15
2016-09-05T06:02:02.939Z,15
2016-09-05T06:03:02.874Z,15
2016-09-05T06:04:02.834Z,15
2016-09-05T06:05:02.107Z,15
2016-09-05T06:06:02.777Z,15
2016-09-05T06:07:02.039Z,15
2016-09-05T06:08:02.011Z,20
2016-09-05T06:09:01.395Z,20
2016-09-05T06:10:02.644Z,20
2016-09-05T06:11:02.619Z,20
2016-09-05T06:12:02.584Z,25
2016-09-05T06:13:01.854Z,25
2016-09-05T06:14:01.822Z,25
2016-09-05T06:15:00.392Z,25
2016-09-05T06:16:01.060Z,25
2016-09-05T06:17:01.725Z,25
2016-09-05T06:18:01.688Z,25
2016-09-05T06:19:00.965Z,30
2016-09-05T06:20:00.930Z,30
2016-09-05T06:21:01.614Z,30
2016-09-05T06:22:01.572Z,30
2016-09-05T06:23:01.528Z,30
2016-09-05T06:24:02.195Z,30
2016-09-05T06:25:02.159Z,30
2016-09-05T06:26:00.732Z,30
2016-09-05T06:27:00.703Z,30
2016-09-05T06:28:00.663Z,30
2016-09-05T06:28:59.247Z,35
2016-09-05T06:29:59.903Z,35
2016-09-05T06:31:01.274Z,35
2016-09-05T06:32:01.927Z,35
2016-09-05T06:33:00.507Z,40
2016-09-05T06:34:01.185Z,40
2016-09-05T06:35:01.152Z,45
2016-09-05T06:36:00.412Z,40
2016-09-05T06:37:01.077Z,40
2016-09-05T06:38:00.341Z,40
2016-09-05T06:39:01.004Z,45
2016-09-05T06:40:00.279Z,45
2016-09-05T06:41:00.947Z,45
2016-09-05T06:42:00.914Z,50
2016-09-05T06:43:00.883Z,45
2016-09-05T06:43:59.467Z,40
2016-09-05T06:45:01.505Z,40
2016-09-05T06:46:00.800Z,50
2016-09-05T06:47:01.444Z,50
2016-09-05T06:48:00.715Z,55
2016-09-05T06:49:00.695Z,50
2016-09-05T06:49:59.260Z,50
2016-09-05T06:50:59.931Z,50
2016-09-05T06:52:01.279Z,45
2016-09-05T06:53:00.555Z,50
2016-09-05T06:53:59.845Z,50
2016-09-05T06:55:01.203Z,50
2016-09-05T06:55:59.772Z,55
2016-09-05T06:56:59.053Z,55
2016-09-05T06:58:01.124Z,55
2016-09-05T06:59:01.062Z,55
2016-09-05T07:00:00.339Z,55
2016-09-05T07:01:00.301Z,55
2016-09-05T07:02:00.271Z,60
2016-09-05T07:03:00.931Z,60
2016-09-05T07:04:00.896Z,55
2016-09-05T07:05:00.166Z,60
2016-09-05T07:06:00.136Z,55
2016-09-05T07:06:59.419Z,50
2016-09-05T07:07:59.376Z,40
2016-09-05T07:09:00.042Z,50
2016-09-05T07:10:00.707Z,55
2016-09-05T07:11:00.675Z,55
2016-09-05T07:12:00.640Z,60
2016-09-05T07:13:00.609Z,65
2016-09-05T07:13:59.895Z,70
2016-09-05T07:15:00.547Z,75
2016-09-05T07:15:59.818Z,80
2016-09-05T07:17:00.498Z,80
2016-09-05T07:17:59.756Z,80
2016-09-05T07:19:00.426Z,80
2016-09-05T07:19:59.019Z,80
2016-09-05T07:21:00.361Z,90
2016-09-05T07:22:00.959Z,105
2016-09-05T07:22:59.594Z,110
2016-09-05T07:23:59.562Z,115
2016-09-05T07:24:59.526Z,115
2016-09-05T07:25:58.802Z,115
2016-09-05T07:26:59.477Z,110
2016-09-05T07:28:00.132Z,110
2016-09-05T07:28:58.706Z,115
2016-09-05T07:30:00.083Z,115
2016-09-05T07:30:59.348Z,115
2016-09-05T07:31:59.312Z,120
2016-09-05T07:32:59.281Z,125
2016-09-05T07:33:59.942Z,125
2016-09-05T07:34:59.228Z,125
2016-09-05T07:35:59.182Z,125
2016-09-05T07:36:59.845Z,130
2016-09-05T07:37:57.731Z,135
2016-09-05T07:38:59.093Z,140
2016-09-05T07:39:59.747Z,145
2016-09-05T07:40:58.330Z,145
2016-09-05T07:41:59.690Z,145
2016-09-05T07:42:59.674Z,145
2016-09-05T07:43:58.232Z,140
2016-09-05T07:45:58.172Z,135
2016-09-05T07:46:59.544Z,135
2016-09-05T07:47:59.501Z,135
2016-09-05T07:48:58.771Z,135
2016-09-05T07:49:58.041Z,135
2016-09-05T07:50:58.719Z,135
2016-09-05T07:51:59.390Z,135
2016-09-05T07:52:59.347Z,135
2016-09-05T07:53:59.316Z,140
2016-09-05T07:54:58.609Z,135
2016-09-05T07:55:57.863Z,135
2016-09-05T07:56:59.221Z,150
2016-09-05T07:57:59.190Z,155
2016-09-05T07:58:57.766Z,155
2016-09-05T07:59:59.142Z,155
2016-09-05T08:00:58.426Z,155
2016-09-05T08:01:58.367Z,155
2016-09-05T08:02:59.031Z,160
2016-09-05T08:03:59.007Z,160
2016-09-05T08:04:58.977Z,160
2016-09-05T08:05:58.260Z,160
2016-09-05T08:06:58.917Z,165
2016-09-05T08:07:58.881Z,170
2016-09-05T08:08:57.452Z,185
2016-09-05T08:09:58.140Z,185
2016-09-05T08:10:58.091Z,185
2016-09-05T08:11:58.757Z,185
2016-09-05T08:12:58.723Z,185
2016-09-05T08:13:57.304Z,185
2016-09-05T08:14:58.656Z,185
2016-09-05T08:15:58.664Z,195
2016-09-05T08:16:58.598Z,205
2016-09-05T08:17:57.877Z,205
2016-09-05T08:18:56.447Z,200
2016-09-05T08:19:57.813Z,200
2016-09-05T08:20:57.781Z,205
2016-09-05T08:21:57.752Z,200
2016-09-05T08:22:57.715Z,185
2016-09-05T08:23:57.009Z,180
2016-09-05T08:24:57.655Z,200
2016-09-05T08:25:56.232Z,215
2016-09-05T08:26:58.296Z,210
2016-09-05T08:27:58.256Z,205
2016-09-05T08:28:58.228Z,170
2016-09-05T08:29:56.808Z,175
2016-09-05T08:30:58.171Z,205
2016-09-05T08:31:57.438Z,225
2016-09-05T08:32:58.121Z,245
2016-09-05T08:33:58.082Z,250
2016-09-05T08:34:56.656Z,240
2016-09-05T08:35:57.323Z,225
2016-09-05T08:36:57.294Z,210
2016-09-05T08:37:57.256Z,185
2016-09-05T08:38:57.234Z,140
2016-09-05T08:39:57.903Z,120
2016-09-05T08:40:56.485Z,110
2016-09-05T08:41:55.757Z,105
2016-09-05T08:42:57.116Z,95
2016-09-05T08:43:57.079Z,90
2016-09-05T08:44:55.651Z,90
2016-09-05T08:45:57.728Z,85
2016-09-05T08:46:56.298Z,85
2016-09-05T08:47:56.255Z,85
2016-09-05T08:48:56.939Z,95
2016-09-05T08:49:56.895Z,100
2016-09-05T08:50:56.174Z,95
2016-09-05T08:51:57.531Z,100
2016-09-05T08:52:57.500Z,110
2016-09-05T08:53:56.098Z,120
2016-09-05T08:54:56.051Z,120
2016-09-05T08:55:57.415Z,115
2016-09-05T08:56:55.989Z,125
2016-09-05T08:57:56.671Z,160
2016-09-05T08:58:57.328Z,180
2016-09-05T08:59:56.593Z,190
2016-09-05T09:00:57.258Z,210
2016-09-05T09:01:57.223Z,245
2016-09-05T09:02:55.811Z,270
2016-09-05T09:03:55.777Z,275
2016-09-05T09:04:57.127Z,285
2016-09-05T09:05:55.713Z,325
2016-09-05T09:06:57.070Z,375
2016-09-05T09:07:56.349Z,350
2016-09-05T09:08:57.030Z,420
2016-09-05T09:09:56.975Z,435
2016-09-05T09:10:56.958Z,485
2016-09-05T09:11:56.926Z,530
2016-09-05T09:12:56.893Z,640
2016-09-05T09:13:56.873Z,735
2016-09-05T09:14:56.144Z,800
2016-09-05T09:15:56.809Z,690
2016-09-05T09:16:56.784Z,715
2016-09-05T09:17:56.058Z,640
2016-09-05T09:18:56.024Z,595
2016-09-05T09:19:55.997Z,565
2016-09-05T09:20:56.664Z,650
2016-09-05T09:21:56.632Z,510
2016-09-05T09:22:55.905Z,490
2016-09-05T09:23:56.582Z,450
2016-09-05T09:24:55.158Z,400
2016-09-05T09:25:55.820Z,400
2016-09-05T09:26:55.794Z,340
2016-09-05T09:27:55.087Z,270
2016-09-05T09:28:55.740Z,250
2016-09-05T09:29:55.765Z,275
2016-09-05T09:30:56.384Z,270
2016-09-05T09:31:54.258Z,250
2016-09-05T09:32:55.627Z,210
2016-09-05T09:33:56.294Z,175
2016-09-05T09:34:56.261Z,185
2016-09-05T09:35:56.236Z,210
2016-09-05T09:36:55.517Z,220
2016-09-05T09:37:54.121Z,240
2016-09-05T09:38:55.462Z,265
2016-09-05T09:39:55.430Z,280
2016-09-05T09:40:54.705Z,275
2016-09-05T09:41:55.401Z,270
2016-09-05T09:42:56.037Z,280
2016-09-05T09:43:55.333Z,285
2016-09-05T09:44:55.294Z,305
2016-09-05T09:45:55.258Z,290
2016-09-05T09:46:53.856Z,295
2016-09-05T09:47:55.208Z,310
2016-09-05T09:48:55.867Z,270
2016-09-05T09:49:55.151Z,240
2016-09-05T09:50:55.128Z,245
2016-09-05T09:51:55.093Z,250
2016-09-05T09:52:55.059Z,255
2016-09-05T09:53:55.724Z,255
2016-09-05T09:54:55.706Z,275
2016-09-05T09:55:55.001Z,300
2016-09-05T09:56:54.250Z,310
2016-09-05T09:57:55.625Z,300
2016-09-05T09:58:55.586Z,320
2016-09-05T09:59:55.561Z,330
2016-09-05T10:00:55.527Z,345
2016-09-05T10:01:55.513Z,370
2016-09-05T10:02:54.787Z,365
2016-09-05T10:03:53.358Z,365
2016-09-05T10:04:54.726Z,365
2016-09-05T10:05:54.698Z,350
2016-09-05T10:06:53.970Z,345
2016-09-05T10:07:55.353Z,315
2016-09-05T10:08:54.607Z,280
2016-09-05T10:09:54.586Z,265
2016-09-05T10:10:55.260Z,270
2016-09-05T10:11:54.527Z,245
2016-09-05T10:12:55.194Z,225
2016-09-05T10:13:53.774Z,225
2016-09-05T10:14:53.751Z,215
2016-09-05T10:15:55.107Z,205
2016-09-05T10:16:55.075Z,185
2016-09-05T10:17:54.351Z,175
2016-09-05T10:18:55.017Z,185
2016-09-05T10:19:54.290Z,200
2016-09-05T10:20:54.267Z,235
2016-09-05T10:21:52.855Z,205
2016-09-05T10:22:54.225Z,190
2016-09-05T10:23:54.190Z,215
2016-09-05T10:24:54.880Z,265
2016-09-05T10:25:54.824Z,250
2016-09-05T10:26:54.791Z,235
2016-09-05T10:27:54.770Z,210
2016-09-05T10:28:53.356Z,205
2016-09-05T10:29:54.068Z,200
2016-09-05T10:30:53.278Z,200
2016-09-05T10:31:54.652Z,215
2016-09-05T10:32:53.923Z,255
2016-09-05T10:33:53.891Z,290
2016-09-05T10:34:54.563Z,300
2016-09-05T10:35:53.143Z,335
2016-09-05T10:36:53.812Z,385
2016-09-05T10:37:53.777Z,420
2016-09-05T10:38:53.749Z,420
2016-09-05T10:39:53.716Z,410
2016-09-05T10:40:53.690Z,395
2016-09-05T10:41:54.357Z,415
2016-09-05T10:42:51.547Z,425
2016-09-05T10:43:53.606Z,390
2016-09-05T10:44:54.275Z,385
2016-09-05T10:45:54.242Z,395
2016-09-05T10:46:54.214Z,350
2016-09-05T10:47:53.498Z,320
2016-09-05T10:48:54.164Z,340
2016-09-05T10:49:54.132Z,360
2016-09-05T10:50:53.409Z,365
2016-09-05T10:51:53.378Z,340
2016-09-05T10:52:53.346Z,355
2016-09-05T10:53:52.624Z,400
2016-09-05T10:54:53.284Z,445
2016-09-05T10:55:53.961Z,455
2016-09-05T10:56:53.936Z,445
2016-09-05T10:57:53.200Z,465
2016-09-05T10:58:53.175Z,500
2016-09-05T10:59:53.857Z,510
2016-09-05T11:00:51.722Z,565
2016-09-05T11:01:53.115Z,500
2016-09-05T11:02:53.065Z,455
2016-09-05T11:03:53.043Z,450
2016-09-05T11:04:53.015Z,455
2016-09-05T11:05:52.288Z,560
2016-09-05T11:06:52.259Z,510
2016-09-05T11:07:52.942Z,520
2016-09-05T11:08:52.200Z,800
2016-09-05T11:09:53.574Z,575
2016-09-05T11:10:52.141Z,545
2016-09-05T11:11:53.504Z,420
2016-09-05T11:12:52.103Z,390
2016-09-05T11:13:52.758Z,355
2016-09-05T11:14:52.723Z,325
2016-09-05T11:15:52.710Z,230
2016-09-05T11:16:51.283Z,210
2016-09-05T11:17:53.337Z,195
2016-09-05T11:18:52.623Z,290
2016-09-05T11:19:51.902Z,260
2016-09-05T11:20:52.616Z,225
2016-09-05T11:21:52.555Z,250
2016-09-05T11:22:53.212Z,250
2016-09-05T11:23:53.174Z,240
2016-09-05T11:24:53.152Z,240
2016-09-05T11:25:52.425Z,250
2016-09-05T11:26:52.413Z,260
2016-09-05T11:27:52.364Z,325
2016-09-05T11:28:51.635Z,310
2016-09-05T11:29:52.315Z,230
2016-09-05T11:30:52.296Z,205
2016-09-05T11:31:51.550Z,175
2016-09-05T11:32:50.852Z,150
2016-09-05T11:33:51.503Z,145
2016-09-05T11:34:52.184Z,165
2016-09-05T11:35:52.147Z,215
2016-09-05T11:36:52.809Z,255
2016-09-05T11:37:52.102Z,265
2016-09-05T11:38:52.760Z,375
2016-09-05T11:39:52.026Z,425
2016-09-05T11:40:52.007Z,470
2016-09-05T11:41:52.680Z,470
2016-09-05T11:42:51.959Z,460
2016-09-05T11:43:52.707Z,535
2016-09-05T11:44:53.536Z,590
2016-09-05T11:45:52.711Z,590
2016-09-05T11:46:51.838Z,565
2016-09-05T11:47:51.815Z,590
2016-09-05T11:48:51.084Z,555
2016-09-05T11:49:52.449Z,510
2016-09-05T11:50:51.024Z,525
2016-09-05T11:51:51.699Z,505
2016-09-05T11:52:51.690Z,490
2016-09-05T11:53:50.970Z,505
2016-09-05T11:54:52.308Z,525
2016-09-05T11:55:51.593Z,510
2016-09-05T11:56:52.256Z,510
2016-09-05T11:57:52.229Z,475
2016-09-05T11:58:51.518Z,445
2016-09-05T11:59:51.477Z,410
2016-09-05T12:00:52.160Z,390
2016-09-05T12:01:51.431Z,400
2016-09-05T12:02:50.704Z,400
2016-09-05T12:03:50.670Z,420
2016-09-05T12:04:51.368Z,430
2016-09-05T12:05:51.316Z,445
2016-09-05T12:06:51.979Z,430
2016-09-05T12:07:51.260Z,395
2016-09-05T12:08:51.981Z,355
2016-09-05T12:09:51.913Z,340
2016-09-05T12:10:51.879Z,315
2016-09-05T12:11:51.849Z,315
2016-09-05T12:12:51.137Z,325
2016-09-05T12:13:51.795Z,355
2016-09-05T12:14:50.373Z,385
2016-09-05T12:15:49.661Z,400
2016-09-05T12:16:49.625Z,405
2016-09-05T12:17:50.987Z,415
2016-09-05T12:18:50.266Z,425
2016-09-05T12:19:51.635Z,430
2016-09-05T12:20:51.613Z,430
2016-09-05T12:21:51.579Z,415
2016-09-05T12:22:51.567Z,400
2016-09-05T12:23:50.134Z,390
2016-09-05T12:24:50.805Z,370
2016-09-05T12:25:51.477Z,335
2016-09-05T12:26:51.442Z,310
2016-09-05T12:27:50.021Z,280
2016-09-05T12:28:51.397Z,250
2016-09-05T12:29:51.368Z,235
2016-09-05T12:30:50.646Z,225
2016-09-05T12:31:50.621Z,235
2016-09-05T12:33:49.682Z,220
2016-09-05T12:34:49.342Z,220
2016-09-05T12:35:49.621Z,210
2016-09-05T12:36:48.998Z,195
2016-09-05T12:37:49.270Z,190
2016-09-05T12:38:49.234Z,190
2016-09-05T12:39:49.509Z,180
2016-09-05T12:40:48.875Z,185
2016-09-05T12:41:49.152Z,185
2016-09-05T12:42:49.426Z,185
2016-09-05T12:43:49.093Z,185
2016-09-05T12:44:49.365Z,175
2016-09-05T12:45:49.350Z,165
2016-09-05T12:46:48.702Z,165
2016-09-05T12:47:48.981Z,170
2016-09-05T12:48:48.957Z,185
2016-09-05T12:49:49.231Z,200
2016-09-05T12:50:48.903Z,195
2016-09-05T12:51:49.170Z,185
2016-09-05T12:52:48.842Z,190
2016-09-05T12:53:48.806Z,190
2016-09-05T12:54:48.479Z,190
2016-09-05T12:55:48.753Z,185
2016-09-05T12:56:49.036Z,185
2016-09-05T12:57:48.701Z,185
2016-09-05T12:58:48.971Z,190
2016-09-05T12:59:48.941Z,185
2016-09-05T13:00:48.314Z,185
2016-09-05T13:01:48.880Z,185
2016-09-05T13:02:48.565Z,180
2016-09-05T13:03:48.218Z,175
2016-09-05T13:04:48.494Z,170
2016-09-05T13:05:48.775Z,170
2016-09-05T13:06:48.453Z,175
2016-09-05T13:07:48.402Z,175
2016-09-05T13:08:48.687Z,175
2016-09-05T13:09:48.647Z,175
2016-09-05T13:10:48.325Z,180
2016-09-05T13:11:48.590Z,190
2016-09-05T13:12:48.268Z,190
2016-09-05T13:13:47.927Z,180
2016-09-05T13:14:48.506Z,175
2016-09-05T13:15:47.870Z,175
2016-09-05T13:16:48.442Z,165
2016-09-05T13:17:47.516Z,170
2016-09-05T13:18:48.089Z,175
2016-09-05T13:19:48.366Z,175
2016-09-05T13:20:48.343Z,175
2016-09-05T13:21:47.696Z,180
2016-09-05T13:22:48.263Z,185
2016-09-05T13:23:48.255Z,175
2016-09-05T13:24:48.205Z,210
2016-09-05T13:25:47.574Z,265
2016-09-05T13:26:47.855Z,255
2016-09-05T13:27:48.123Z,275
2016-09-05T13:28:48.100Z,310
2016-09-05T13:29:47.764Z,290
2016-09-05T13:30:48.044Z,265
2016-09-05T13:31:47.405Z,245
2016-09-05T13:32:47.381Z,235
2016-09-05T13:33:47.345Z,240
2016-09-05T13:34:47.931Z,220
2016-09-05T13:35:49.520Z,215
2016-09-05T13:36:47.566Z,205
2016-09-05T13:37:47.831Z,230
2016-09-05T13:38:47.800Z,235
2016-09-05T13:39:47.483Z,230
2016-09-05T13:40:47.755Z,225
2016-09-05T13:41:47.423Z,210
2016-09-05T13:42:47.390Z,200
2016-09-05T13:43:47.661Z,195
2016-09-05T13:44:47.335Z,225
2016-09-05T13:45:47.299Z,230
2016-09-05T13:46:47.574Z,225
2016-09-05T13:47:46.941Z,245
2016-09-05T13:48:47.213Z,235
2016-09-05T13:49:47.487Z,240
2016-09-05T13:50:47.155Z,235
2016-09-05T13:51:46.824Z,240
2016-09-05T13:52:47.397Z,225
2016-09-05T13:53:47.092Z,195
2016-09-05T13:54:47.347Z,185
2016-09-05T13:55:47.311Z,170
2016-09-05T13:56:46.989Z,185
2016-09-05T13:57:47.265Z,185
2016-09-05T13:58:46.925Z,185
2016-09-05T13:59:47.204Z,190
2016-09-05T14:00:47.169Z,185
2016-09-05T14:01:46.548Z,175
2016-09-05T14:02:46.819Z,175
2016-09-05T14:03:46.483Z,175
2016-09-05T14:04:47.056Z,185
2016-09-05T14:05:47.047Z,215
2016-09-05T14:06:46.398Z,220
2016-09-05T14:07:46.675Z,250
2016-09-05T14:08:46.960Z,270
2016-09-05T14:09:46.622Z,255
2016-09-05T14:10:46.578Z,240
2016-09-05T14:11:46.562Z,220
2016-09-05T14:12:46.528Z,240
2016-09-05T14:13:46.807Z,250